Gerard D — WTG3761 — position and weather

sailwx.info

Track history (hours):
 
Tides and Currents Weather Stations Pressure Air Temp Water Temp Dewpoint Dewpoint Depression Visibility Wind Speed Wind Dir Waves Ship Positions

Gerard D

Owner: WEEKS MARINE, INC., CRANFORD, NJ. More information available from US FCC via Universal Licensing System and Coast Guard Vessel Documentation Center.

Last reported at 2017-Nov-20 00:30 UTC. Time now 2017-Nov-21 21:09 UTC.
Position N 29°42' W 094°59'.

Length 20 m; draft 3 m.

Type: Tug. MMSI: 366939130.

Date/timePositionNaut miles runAvg speedWind from/ knotsBaromVisibWave heightAir tempDewpointWater temp
2017-Nov-20 00:30N 29°42' W 094°59'0 0.3
2017-Nov-20 00:00N 29°41' W 094°59'2 3.9
2017-Nov-19 23:30N 29°40' W 094°58'2 4.0
2017-Nov-19 23:00N 29°38' W 094°58'0 0.4
2017-Nov-19 22:30N 29°38' W 094°58'4 7.2
2017-Nov-19 22:00N 29°41' W 094°59'0 0.3
2017-Nov-19 21:30N 29°41' W 094°59'1 1.1
2017-Nov-19 21:00N 29°41' W 094°59'2 4.1
2017-Nov-19 20:28N 29°39' W 094°58'1 2.7
2017-Nov-19 20:00N 29°38' W 094°58'2 4.5
2017-Nov-19 19:30N 29°40' W 094°59'2 3.3
2017-Nov-19 19:00N 29°41' W 094°59'0 0.1
2017-Nov-19 18:30N 29°41' W 094°59'0 0.4
2017-Nov-19 18:00N 29°41' W 094°59'0 0.0
2017-Nov-19 17:30N 29°41' W 094°59'0 0.0
2017-Nov-19 17:00N 29°41' W 094°59'0 0.0
2017-Nov-19 16:30N 29°41' W 094°59'0 0.0
2017-Nov-19 16:00N 29°41' W 094°59'0 0.7
2017-Nov-19 15:28N 29°41' W 094°59'1 1.8
2017-Nov-19 14:59N 29°40' W 094°59'2 4.4
2017-Nov-19 14:30N 29°38' W 094°58'1 1.3
2017-Nov-19 14:00N 29°38' W 094°57'0 0.0
2017-Nov-19 13:30N 29°38' W 094°57'0 0.0
2017-Nov-19 13:00N 29°38' W 094°57'0 0.0
2017-Nov-19 12:30N 29°38' W 094°57'0 0.0
2017-Nov-19 12:00N 29°38' W 094°57'0 0.0
2017-Nov-19 11:30N 29°38' W 094°57'0 0.0
2017-Nov-19 10:58N 29°38' W 094°57'0 0.0
2017-Nov-19 10:30N 29°38' W 094°57'0 0.0
2017-Nov-19 10:00N 29°38' W 094°57'0 0.0
2017-Nov-19 09:29N 29°38' W 094°57'0 0.0
2017-Nov-19 09:00N 29°38' W 094°57'0 0.0
2017-Nov-19 08:29N 29°38' W 094°57'0 0.0
2017-Nov-19 08:00N 29°38' W 094°57'0 0.0
2017-Nov-19 07:30N 29°38' W 094°57'0 0.0
2017-Nov-19 07:00N 29°38' W 094°57'0 0.0
2017-Nov-19 06:30N 29°38' W 094°57'0 0.0
2017-Nov-19 06:00N 29°38' W 094°57'0 0.0
2017-Nov-19 05:30N 29°38' W 094°57'0 0.0
2017-Nov-19 05:00N 29°38' W 094°57'0 0.0
2017-Nov-19 04:30N 29°38' W 094°57'0 0.0
2017-Nov-19 04:00N 29°38' W 094°57'0 0.0
2017-Nov-19 03:30N 29°38' W 094°57'0 0.0
2017-Nov-19 03:00N 29°38' W 094°57'0 0.0
2017-Nov-19 02:30N 29°38' W 094°57'0 0.0
2017-Nov-19 02:00N 29°38' W 094°57'0 0.0
2017-Nov-19 01:30N 29°38' W 094°57'0 0.0
2017-Nov-19 01:00N 29°38' W 094°57'0 0.0
2017-Nov-19 00:30N 29°38' W 094°57'0 0.0
2017-Nov-19 00:00N 29°38' W 094°57'1 2.4
2017-Nov-18 23:30N 29°39' W 094°58'2 4.7
2017-Nov-18 23:00N 29°41' W 094°59'0 0.0
2017-Nov-18 22:30N 29°41' W 094°59'0 0.0
2017-Nov-18 22:00N 29°41' W 094°59'0 0.0
2017-Nov-18 21:30N 29°41' W 094°59'0 0.0
2017-Nov-18 21:00N 29°41' W 094°59'0 0.4
2017-Nov-18 20:30N 29°41' W 094°59'2 4.7
2017-Nov-18 19:59N 29°38' W 094°58'2 3.5
2017-Nov-18 19:30N 29°37' W 094°58'2 4.2
2017-Nov-18 19:00N 29°37' W 095°01'0 0.0
2017-Nov-18 18:30N 29°37' W 095°01'2 4.2
2017-Nov-18 18:00N 29°37' W 094°58'2 3.7
2017-Nov-18 17:30N 29°39' W 094°58'3 5.2
2017-Nov-18 17:00N 29°41' W 094°59'0 0.6
2017-Nov-18 16:30N 29°41' W 094°59'0 0.9
2017-Nov-18 16:00N 29°41' W 094°59'1 1.2
2017-Nov-18 15:30N 29°42' W 094°59'1 1.3
2017-Nov-18 15:00N 29°42' W 094°60'1 1.1
2017-Nov-18 14:29N 29°42' W 094°59'2 4.5
2017-Nov-18 14:00N 29°40' W 094°58'2 4.0
2017-Nov-18 13:30N 29°38' W 094°57'0 0.0
2017-Nov-18 12:59N 29°38' W 094°57'0 0.0
2017-Nov-18 12:30N 29°38' W 094°57'0 0.0
2017-Nov-18 11:07N 29°38' W 094°57'0 0.0
2017-Nov-18 10:53N 29°38' W 094°57'0 0.0
2017-Nov-18 02:49N 29°38' W 094°57'1 4.7
2017-Nov-18 02:30N 29°39' W 094°58'4 6.8
2017-Nov-18 01:58N 29°42' W 095°01'2 1.0
2017-Nov-17 23:58N 29°42' W 095°03'3 6.4
2017-Nov-17 23:28N 29°42' W 094°59'0 0.9
2017-Nov-17 23:00N 29°42' W 094°60'1 1.2
2017-Nov-17 22:30N 29°41' W 094°59'1 1.9
2017-Nov-17 22:00N 29°41' W 094°59'3 6.2
2017-Nov-17 21:30N 29°38' W 094°57'0 0.0
2017-Nov-17 21:00N 29°38' W 094°57'0 0.0
2017-Nov-17 20:30N 29°38' W 094°57'0 0.3
2017-Nov-17 20:00N 29°38' W 094°57'0 0.3
2017-Nov-17 19:30N 29°38' W 094°57'0 0.6
2017-Nov-17 19:00N 29°38' W 094°58'3 6.6
2017-Nov-17 18:30N 29°41' W 094°59'0 0.4
2017-Nov-17 18:00N 29°41' W 094°59'0 0.3
2017-Nov-17 17:30N 29°41' W 094°59'0 0.1
2017-Nov-17 17:00N 29°41' W 094°59'0 0.0
2017-Nov-17 16:30N 29°41' W 094°59'0 0.1
2017-Nov-17 16:00N 29°41' W 094°59'0 0.1
2017-Nov-17 15:30N 29°41' W 094°59'0 0.0
2017-Nov-17 15:00N 29°41' W 094°59'0 0.0
2017-Nov-17 14:30N 29°41' W 094°59'0 0.1
2017-Nov-17 14:00N 29°41' W 094°59'0 0.2
2017-Nov-17 13:30N 29°42' W 094°59'0 0.2
2017-Nov-17 13:00N 29°41' W 094°59'0 0.1
2017-Nov-17 12:30N 29°41' W 094°59'0 0.1
2017-Nov-17 12:00N 29°41' W 094°59'0 0.7
2017-Nov-17 11:29N 29°42' W 094°60'0 1.0
2017-Nov-17 11:00N 29°41' W 094°59'0 0.0
2017-Nov-17 10:30N 29°41' W 094°59'0 0.0
2017-Nov-17 10:00N 29°41' W 094°59'0 0.0
2017-Nov-17 09:30N 29°41' W 094°59'0 0.1
2017-Nov-17 09:00N 29°41' W 094°59'2 4.0
2017-Nov-17 08:30N 29°40' W 094°58'2 3.5
2017-Nov-17 08:00N 29°38' W 094°57'1 2.0
2017-Nov-17 07:30N 29°39' W 094°58'3 5.5
2017-Nov-17 07:00N 29°41' W 094°59'0 0.1
2017-Nov-17 06:30N 29°41' W 094°59'0 0.0
2017-Nov-17 06:00N 29°41' W 094°59'0 0.0
2017-Nov-17 05:30N 29°41' W 094°59'0 0.1
2017-Nov-17 05:00N 29°41' W 094°59'0 0.0
2017-Nov-17 04:30N 29°41' W 094°59'0 0.1
2017-Nov-17 04:00N 29°41' W 094°59'1 1.9
2017-Nov-17 03:30N 29°42' W 095°00'0 0.0
2017-Nov-17 02:58N 29°42' W 094°60'0 0.0
2017-Nov-17 02:30N 29°42' W 095°00'0 0.0
2017-Nov-17 02:00N 29°42' W 095°00'0 0.6
2017-Nov-17 01:30N 29°42' W 094°60'0 0.8
2017-Nov-17 01:00N 29°42' W 094°59'0 0.3
2017-Nov-17 00:30N 29°42' W 094°59'0 0.0
2017-Nov-17 00:00N 29°42' W 094°59'0 0.4
2017-Nov-16 23:30N 29°42' W 094°59'0 0.6
2017-Nov-16 23:00N 29°42' W 094°60'0 0.4
2017-Nov-16 22:30N 29°42' W 094°60'2 4.7
2017-Nov-16 21:59N 29°40' W 094°58'2 4.3
2017-Nov-16 21:30N 29°38' W 094°57'0 0.6
2017-Nov-16 20:59N 29°38' W 094°57'0 0.6
2017-Nov-16 20:30N 29°38' W 094°58'0 0.3
2017-Nov-16 20:00N 29°38' W 094°57'0 0.4
2017-Nov-16 19:30N 29°38' W 094°57'0 0.0
2017-Nov-16 19:00N 29°38' W 094°57'0 0.0
2017-Nov-16 18:30N 29°38' W 094°57'0 0.0
2017-Nov-16 18:00N 29°38' W 094°57'0 0.0
2017-Nov-16 17:30N 29°38' W 094°57'0 0.0
2017-Nov-16 17:00N 29°38' W 094°57'0 0.1
2017-Nov-16 16:30N 29°38' W 094°57'0 0.0
2017-Nov-16 16:00N 29°38' W 094°57'0 0.0
2017-Nov-16 14:43N 29°38' W 094°57'0 0.0
2017-Nov-16 14:30N 29°38' W 094°57'0 0.6
2017-Nov-16 14:00N 29°38' W 094°57'0 0.6
2017-Nov-16 13:30N 29°38' W 094°57'0 0.6
2017-Nov-16 13:00N 29°38' W 094°57'0 0.0
2017-Nov-16 12:18N 29°38' W 094°57'0 0.0
2017-Nov-16 12:00N 29°38' W 094°57'0 0.0
2017-Nov-16 11:30N 29°38' W 094°57'1 1.6
2017-Nov-16 10:59N 29°37' W 094°58'3 5.9
2017-Nov-16 10:30N 29°37' W 095°01'3 5.7
2017-Nov-16 10:00N 29°37' W 094°58'4 7.9
2017-Nov-16 09:30N 29°41' W 094°59'1 2.4
2017-Nov-16 09:00N 29°40' W 094°59'3 1.2
2017-Nov-16 06:55N 29°38' W 094°57'0 0.0
2017-Nov-16 06:30N 29°38' W 094°57'0 0.0
2017-Nov-16 04:49N 29°38' W 094°57'0 0.0
2017-Nov-16 04:14N 29°38' W 094°57'0 0.0
2017-Nov-16 03:51N 29°38' W 094°57'0 0.0
2017-Nov-16 02:08N 29°38' W 094°57'0 0.0
2017-Nov-16 01:56N 29°38' W 094°57'0 0.0
2017-Nov-16 01:27N 29°38' W 094°57'0 0.2
2017-Nov-16 01:00N 29°38' W 094°57'4 7.8
2017-Nov-16 00:30N 29°41' W 094°59'1 1.4
2017-Nov-15 23:59N 29°42' W 094°60'0 0.2
2017-Nov-15 23:30N 29°42' W 094°60'1 2.3
2017-Nov-15 23:00N 29°41' W 094°59'3 6.2
2017-Nov-15 22:30N 29°38' W 094°58'0 0.5
2017-Nov-15 22:00N 29°38' W 094°57'0 0.0
2017-Nov-15 21:30N 29°38' W 094°57'0 0.0
2017-Nov-15 21:00N 29°38' W 094°57'0 0.0
2017-Nov-15 20:30N 29°38' W 094°57'0 0.9
2017-Nov-15 20:00N 29°38' W 094°58'3 5.9
2017-Nov-15 19:30N 29°41' W 094°59'1 2.0
2017-Nov-15 18:59N 29°42' W 094°60'0 0.6
2017-Nov-15 18:30N 29°42' W 094°59'3 5.4
2017-Nov-15 17:59N 29°39' W 094°58'1 3.1
2017-Nov-15 17:30N 29°38' W 094°57'0 0.6
2017-Nov-15 17:00N 29°37' W 094°57'0 0.5
2017-Nov-15 16:30N 29°38' W 094°58'0 0.2
2017-Nov-15 16:00N 29°38' W 094°58'3 6.2
2017-Nov-15 15:30N 29°41' W 094°59'1 2.8
2017-Nov-15 15:00N 29°42' W 094°60'0 0.2
2017-Nov-15 14:30N 29°42' W 094°60'0 0.3
2017-Nov-15 14:00N 29°42' W 094°60'0 0.1
2017-Nov-15 13:30N 29°42' W 094°60'0 0.2
2017-Nov-15 12:54N 29°42' W 094°60'0 0.2
2017-Nov-15 12:30N 29°42' W 094°60'0 0.2
2017-Nov-15 12:00N 29°42' W 094°60'0 0.2
2017-Nov-15 11:30N 29°42' W 094°60'0 0.1
2017-Nov-15 10:58N 29°42' W 094°60'0 0.0
2017-Nov-15 09:59N 29°42' W 094°60'0 0.0
2017-Nov-15 08:31N 29°42' W 094°60'0 0.0
2017-Nov-15 08:16N 29°42' W 094°60'0 0.0
2017-Nov-15 07:41N 29°42' W 094°60'0 0.1
2017-Nov-15 07:19N 29°42' W 094°60'0 0.4
2017-Nov-15 07:00N 29°42' W 094°60'0 0.3
2017-Nov-15 06:30N 29°42' W 094°60'0 0.2
2017-Nov-15 05:59N 29°42' W 094°60'0 0.3
2017-Nov-15 05:30N 29°42' W 094°60'0 0.2
2017-Nov-15 04:57N 29°42' W 094°60'0 0.0
2017-Nov-15 04:30N 29°42' W 094°60'0 0.0
2017-Nov-15 03:45N 29°42' W 094°60'0 1.2
2017-Nov-15 03:30N 29°42' W 094°59'4 7.3
2017-Nov-15 02:58N 29°38' W 094°58'4 7.9
2017-Nov-15 02:30N 29°35' W 094°56'2 4.6
2017-Nov-15 02:00N 29°33' W 094°54'1 1.0
2017-Nov-15 01:30N 29°33' W 094°55'1 1.5
2017-Nov-15 01:00N 29°34' W 094°55'1 1.8
2017-Nov-15 00:30N 29°35' W 094°56'2 4.3
2017-Nov-15 00:00N 29°36' W 094°57'2 3.4
2017-Nov-14 23:30N 29°37' W 094°59'2 3.0
2017-Nov-14 23:00N 29°37' W 095°01'0 0.0
2017-Nov-14 22:30N 29°37' W 095°01'1 2.9
2017-Nov-14 22:00N 29°37' W 094°59'2 3.4
2017-Nov-14 21:30N 29°37' W 094°57'0 0.0
2017-Nov-14 21:00N 29°37' W 094°57'0 0.0
2017-Nov-14 20:30N 29°37' W 094°57'0 0.0
2017-Nov-14 20:00N 29°37' W 094°57'0 0.0
2017-Nov-14 19:30N 29°37' W 094°57'0 0.0
2017-Nov-14 19:00N 29°37' W 094°57'0 0.0
2017-Nov-14 18:27N 29°37' W 094°57'0 0.0
2017-Nov-14 17:47N 29°37' W 094°57'0 0.0
2017-Nov-14 17:30N 29°37' W 094°57'0 0.0
2017-Nov-14 17:00N 29°37' W 094°57'0 0.0
2017-Nov-14 16:30N 29°37' W 094°57'0 0.0
2017-Nov-14 15:59N 29°37' W 094°57'0 0.0
2017-Nov-14 15:30N 29°37' W 094°57'0 0.0
2017-Nov-14 14:58N 29°37' W 094°57'0 0.0
2017-Nov-14 14:30N 29°37' W 094°57'0 0.0
2017-Nov-14 14:00N 29°37' W 094°57'0 0.0
2017-Nov-14 13:30N 29°37' W 094°57'0 0.8
2017-Nov-14 13:00N 29°38' W 094°57'0 0.9
2017-Nov-14 12:28N 29°37' W 094°57'0 0.1
2017-Nov-14 12:00N 29°37' W 094°57'0 0.0
2017-Nov-14 11:30N 29°37' W 094°57'0 0.0
2017-Nov-14 11:00N 29°37' W 094°57'0 0.0
2017-Nov-14 10:30N 29°37' W 094°57'0 0.0
2017-Nov-14 10:00N 29°37' W 094°57'0 0.0
2017-Nov-14 09:30N 29°37' W 094°57'0 0.0
2017-Nov-14 09:00N 29°37' W 094°57'0 0.0
2017-Nov-14 08:30N 29°37' W 094°57'0 0.0
2017-Nov-14 08:00N 29°37' W 094°57'0 0.0
2017-Nov-14 07:30N 29°37' W 094°57'0 0.0
2017-Nov-14 07:00N 29°37' W 094°57'0 0.0
2017-Nov-14 06:30N 29°37' W 094°57'0 0.0
2017-Nov-14 06:00N 29°37' W 094°57'0 0.0
2017-Nov-14 05:30N 29°37' W 094°57'0 0.0
2017-Nov-14 05:00N 29°37' W 094°57'0 0.0
2017-Nov-14 04:30N 29°37' W 094°57'0 0.0
2017-Nov-14 04:00N 29°37' W 094°57'0 0.0
2017-Nov-14 03:30N 29°37' W 094°57'0 0.0
2017-Nov-14 03:00N 29°37' W 094°57'3 5.7
2017-Nov-14 02:30N 29°37' W 095°01'0 0.0
2017-Nov-14 02:00N 29°37' W 095°01'0 0.0
2017-Nov-14 01:30N 29°37' W 095°01'0 0.0
2017-Nov-14 01:00N 29°37' W 095°01'2 4.0
2017-Nov-14 00:30N 29°37' W 094°58'1 1.9
2017-Nov-14 00:00N 29°37' W 094°57'0 0.1
2017-Nov-13 23:27N 29°37' W 094°57'1 2.4
2017-Nov-13 23:00N 29°37' W 094°59'2 4.1
2017-Nov-13 22:30N 29°37' W 095°01'0 0.0
2017-Nov-13 22:00N 29°37' W 095°01'29 1.3
2017-Nov-13 00:49N 29°33' W 094°28'  
Track history (hours):
 
Tides and Currents Weather Stations Pressure Air Temp Water Temp Dewpoint Dewpoint Depression Visibility Wind Speed Wind Dir Waves Ship Positions

Gerard D

Owner: WEEKS MARINE, INC., CRANFORD, NJ. More information available from US FCC via Universal Licensing System and Coast Guard Vessel Documentation Center.

Last reported at 2017-Nov-20 00:30 UTC. Time now 2017-Nov-21 21:09 UTC.
Position N 29°42' W 094°59'.

Length 20 m; draft 3 m.

Type: Tug. MMSI: 366939130.

Date/timePositionNaut miles runAvg speedWind from/ knotsBaromVisibWave heightAir tempDewpointWater temp
2017-Nov-20 00:30N 29°42' W 094°59'0 0.3
2017-Nov-20 00:00N 29°41' W 094°59'2 3.9
2017-Nov-19 23:30N 29°40' W 094°58'2 4.0
2017-Nov-19 23:00N 29°38' W 094°58'0 0.4
2017-Nov-19 22:30N 29°38' W 094°58'4 7.2
2017-Nov-19 22:00N 29°41' W 094°59'0 0.3
2017-Nov-19 21:30N 29°41' W 094°59'1 1.1
2017-Nov-19 21:00N 29°41' W 094°59'2 4.1
2017-Nov-19 20:28N 29°39' W 094°58'1 2.7
2017-Nov-19 20:00N 29°38' W 094°58'2 4.5
2017-Nov-19 19:30N 29°40' W 094°59'2 3.3
2017-Nov-19 19:00N 29°41' W 094°59'0 0.1
2017-Nov-19 18:30N 29°41' W 094°59'0 0.4
2017-Nov-19 18:00N 29°41' W 094°59'0 0.0
2017-Nov-19 17:30N 29°41' W 094°59'0 0.0
2017-Nov-19 17:00N 29°41' W 094°59'0 0.0
2017-Nov-19 16:30N 29°41' W 094°59'0 0.0
2017-Nov-19 16:00N 29°41' W 094°59'0 0.7
2017-Nov-19 15:28N 29°41' W 094°59'1 1.8
2017-Nov-19 14:59N 29°40' W 094°59'2 4.4
2017-Nov-19 14:30N 29°38' W 094°58'1 1.3
2017-Nov-19 14:00N 29°38' W 094°57'0 0.0
2017-Nov-19 13:30N 29°38' W 094°57'0 0.0
2017-Nov-19 13:00N 29°38' W 094°57'0 0.0
2017-Nov-19 12:30N 29°38' W 094°57'0 0.0
2017-Nov-19 12:00N 29°38' W 094°57'0 0.0
2017-Nov-19 11:30N 29°38' W 094°57'0 0.0
2017-Nov-19 10:58N 29°38' W 094°57'0 0.0
2017-Nov-19 10:30N 29°38' W 094°57'0 0.0
2017-Nov-19 10:00N 29°38' W 094°57'0 0.0
2017-Nov-19 09:29N 29°38' W 094°57'0 0.0
2017-Nov-19 09:00N 29°38' W 094°57'0 0.0
2017-Nov-19 08:29N 29°38' W 094°57'0 0.0
2017-Nov-19 08:00N 29°38' W 094°57'0 0.0
2017-Nov-19 07:30N 29°38' W 094°57'0 0.0
2017-Nov-19 07:00N 29°38' W 094°57'0 0.0
2017-Nov-19 06:30N 29°38' W 094°57'0 0.0
2017-Nov-19 06:00N 29°38' W 094°57'0 0.0
2017-Nov-19 05:30N 29°38' W 094°57'0 0.0
2017-Nov-19 05:00N 29°38' W 094°57'0 0.0
2017-Nov-19 04:30N 29°38' W 094°57'0 0.0
2017-Nov-19 04:00N 29°38' W 094°57'0 0.0
2017-Nov-19 03:30N 29°38' W 094°57'0 0.0
2017-Nov-19 03:00N 29°38' W 094°57'0 0.0
2017-Nov-19 02:30N 29°38' W 094°57'0 0.0
2017-Nov-19 02:00N 29°38' W 094°57'0 0.0
2017-Nov-19 01:30N 29°38' W 094°57'0 0.0
2017-Nov-19 01:00N 29°38' W 094°57'0 0.0
2017-Nov-19 00:30N 29°38' W 094°57'0 0.0
2017-Nov-19 00:00N 29°38' W 094°57'1 2.4
2017-Nov-18 23:30N 29°39' W 094°58'2 4.7
2017-Nov-18 23:00N 29°41' W 094°59'0 0.0
2017-Nov-18 22:30N 29°41' W 094°59'0 0.0
2017-Nov-18 22:00N 29°41' W 094°59'0 0.0
2017-Nov-18 21:30N 29°41' W 094°59'0 0.0
2017-Nov-18 21:00N 29°41' W 094°59'0 0.4
2017-Nov-18 20:30N 29°41' W 094°59'2 4.7
2017-Nov-18 19:59N 29°38' W 094°58'2 3.5
2017-Nov-18 19:30N 29°37' W 094°58'2 4.2
2017-Nov-18 19:00N 29°37' W 095°01'0 0.0
2017-Nov-18 18:30N 29°37' W 095°01'2 4.2
2017-Nov-18 18:00N 29°37' W 094°58'2 3.7
2017-Nov-18 17:30N 29°39' W 094°58'3 5.2
2017-Nov-18 17:00N 29°41' W 094°59'0 0.6
2017-Nov-18 16:30N 29°41' W 094°59'0 0.9
2017-Nov-18 16:00N 29°41' W 094°59'1 1.2
2017-Nov-18 15:30N 29°42' W 094°59'1 1.3
2017-Nov-18 15:00N 29°42' W 094°60'1 1.1
2017-Nov-18 14:29N 29°42' W 094°59'2 4.5
2017-Nov-18 14:00N 29°40' W 094°58'2 4.0
2017-Nov-18 13:30N 29°38' W 094°57'0 0.0
2017-Nov-18 12:59N 29°38' W 094°57'0 0.0
2017-Nov-18 12:30N 29°38' W 094°57'0 0.0
2017-Nov-18 11:07N 29°38' W 094°57'0 0.0
2017-Nov-18 10:53N 29°38' W 094°57'0 0.0
2017-Nov-18 02:49N 29°38' W 094°57'1 4.7
2017-Nov-18 02:30N 29°39' W 094°58'4 6.8
2017-Nov-18 01:58N 29°42' W 095°01'2 1.0
2017-Nov-17 23:58N 29°42' W 095°03'3 6.4
2017-Nov-17 23:28N 29°42' W 094°59'0 0.9
2017-Nov-17 23:00N 29°42' W 094°60'1 1.2
2017-Nov-17 22:30N 29°41' W 094°59'1 1.9
2017-Nov-17 22:00N 29°41' W 094°59'3 6.2
2017-Nov-17 21:30N 29°38' W 094°57'0 0.0
2017-Nov-17 21:00N 29°38' W 094°57'0 0.0
2017-Nov-17 20:30N 29°38' W 094°57'0 0.3
2017-Nov-17 20:00N 29°38' W 094°57'0 0.3
2017-Nov-17 19:30N 29°38' W 094°57'0 0.6
2017-Nov-17 19:00N 29°38' W 094°58'3 6.6
2017-Nov-17 18:30N 29°41' W 094°59'0 0.4
2017-Nov-17 18:00N 29°41' W 094°59'0 0.3
2017-Nov-17 17:30N 29°41' W 094°59'0 0.1
2017-Nov-17 17:00N 29°41' W 094°59'0 0.0
2017-Nov-17 16:30N 29°41' W 094°59'0 0.1
2017-Nov-17 16:00N 29°41' W 094°59'0 0.1
2017-Nov-17 15:30N 29°41' W 094°59'0 0.0
2017-Nov-17 15:00N 29°41' W 094°59'0 0.0
2017-Nov-17 14:30N 29°41' W 094°59'0 0.1
2017-Nov-17 14:00N 29°41' W 094°59'0 0.2
2017-Nov-17 13:30N 29°42' W 094°59'0 0.2
2017-Nov-17 13:00N 29°41' W 094°59'0 0.1
2017-Nov-17 12:30N 29°41' W 094°59'0 0.1
2017-Nov-17 12:00N 29°41' W 094°59'0 0.7
2017-Nov-17 11:29N 29°42' W 094°60'0 1.0
2017-Nov-17 11:00N 29°41' W 094°59'0 0.0
2017-Nov-17 10:30N 29°41' W 094°59'0 0.0
2017-Nov-17 10:00N 29°41' W 094°59'0 0.0
2017-Nov-17 09:30N 29°41' W 094°59'0 0.1
2017-Nov-17 09:00N 29°41' W 094°59'2 4.0
2017-Nov-17 08:30N 29°40' W 094°58'2 3.5
2017-Nov-17 08:00N 29°38' W 094°57'1 2.0
2017-Nov-17 07:30N 29°39' W 094°58'3 5.5
2017-Nov-17 07:00N 29°41' W 094°59'0 0.1
2017-Nov-17 06:30N 29°41' W 094°59'0 0.0
2017-Nov-17 06:00N 29°41' W 094°59'0 0.0
2017-Nov-17 05:30N 29°41' W 094°59'0 0.1
2017-Nov-17 05:00N 29°41' W 094°59'0 0.0
2017-Nov-17 04:30N 29°41' W 094°59'0 0.1
2017-Nov-17 04:00N 29°41' W 094°59'1 1.9
2017-Nov-17 03:30N 29°42' W 095°00'0 0.0
2017-Nov-17 02:58N 29°42' W 094°60'0 0.0
2017-Nov-17 02:30N 29°42' W 095°00'0 0.0
2017-Nov-17 02:00N 29°42' W 095°00'0 0.6
2017-Nov-17 01:30N 29°42' W 094°60'0 0.8
2017-Nov-17 01:00N 29°42' W 094°59'0 0.3
2017-Nov-17 00:30N 29°42' W 094°59'0 0.0
2017-Nov-17 00:00N 29°42' W 094°59'0 0.4
2017-Nov-16 23:30N 29°42' W 094°59'0 0.6
2017-Nov-16 23:00N 29°42' W 094°60'0 0.4
2017-Nov-16 22:30N 29°42' W 094°60'2 4.7
2017-Nov-16 21:59N 29°40' W 094°58'2 4.3
2017-Nov-16 21:30N 29°38' W 094°57'0 0.6
2017-Nov-16 20:59N 29°38' W 094°57'0 0.6
2017-Nov-16 20:30N 29°38' W 094°58'0 0.3
2017-Nov-16 20:00N 29°38' W 094°57'0 0.4
2017-Nov-16 19:30N 29°38' W 094°57'0 0.0
2017-Nov-16 19:00N 29°38' W 094°57'0 0.0
2017-Nov-16 18:30N 29°38' W 094°57'0 0.0
2017-Nov-16 18:00N 29°38' W 094°57'0 0.0
2017-Nov-16 17:30N 29°38' W 094°57'0 0.0
2017-Nov-16 17:00N 29°38' W 094°57'0 0.1
2017-Nov-16 16:30N 29°38' W 094°57'0 0.0
2017-Nov-16 16:00N 29°38' W 094°57'0 0.0
2017-Nov-16 14:43N 29°38' W 094°57'0 0.0
2017-Nov-16 14:30N 29°38' W 094°57'0 0.6
2017-Nov-16 14:00N 29°38' W 094°57'0 0.6
2017-Nov-16 13:30N 29°38' W 094°57'0 0.6
2017-Nov-16 13:00N 29°38' W 094°57'0 0.0
2017-Nov-16 12:18N 29°38' W 094°57'0 0.0
2017-Nov-16 12:00N 29°38' W 094°57'0 0.0
2017-Nov-16 11:30N 29°38' W 094°57'1 1.6
2017-Nov-16 10:59N 29°37' W 094°58'3 5.9
2017-Nov-16 10:30N 29°37' W 095°01'3 5.7
2017-Nov-16 10:00N 29°37' W 094°58'4 7.9
2017-Nov-16 09:30N 29°41' W 094°59'1 2.4
2017-Nov-16 09:00N 29°40' W 094°59'3 1.2
2017-Nov-16 06:55N 29°38' W 094°57'0 0.0
2017-Nov-16 06:30N 29°38' W 094°57'0 0.0
2017-Nov-16 04:49N 29°38' W 094°57'0 0.0
2017-Nov-16 04:14N 29°38' W 094°57'0 0.0
2017-Nov-16 03:51N 29°38' W 094°57'0 0.0
2017-Nov-16 02:08N 29°38' W 094°57'0 0.0
2017-Nov-16 01:56N 29°38' W 094°57'0 0.0
2017-Nov-16 01:27N 29°38' W 094°57'0 0.2
2017-Nov-16 01:00N 29°38' W 094°57'4 7.8
2017-Nov-16 00:30N 29°41' W 094°59'1 1.4
2017-Nov-15 23:59N 29°42' W 094°60'0 0.2
2017-Nov-15 23:30N 29°42' W 094°60'1 2.3
2017-Nov-15 23:00N 29°41' W 094°59'3 6.2
2017-Nov-15 22:30N 29°38' W 094°58'0 0.5
2017-Nov-15 22:00N 29°38' W 094°57'0 0.0
2017-Nov-15 21:30N 29°38' W 094°57'0 0.0
2017-Nov-15 21:00N 29°38' W 094°57'0 0.0
2017-Nov-15 20:30N 29°38' W 094°57'0 0.9
2017-Nov-15 20:00N 29°38' W 094°58'3 5.9
2017-Nov-15 19:30N 29°41' W 094°59'1 2.0
2017-Nov-15 18:59N 29°42' W 094°60'0 0.6
2017-Nov-15 18:30N 29°42' W 094°59'3 5.4
2017-Nov-15 17:59N 29°39' W 094°58'1 3.1
2017-Nov-15 17:30N 29°38' W 094°57'0 0.6
2017-Nov-15 17:00N 29°37' W 094°57'0 0.5
2017-Nov-15 16:30N 29°38' W 094°58'0 0.2
2017-Nov-15 16:00N 29°38' W 094°58'3 6.2
2017-Nov-15 15:30N 29°41' W 094°59'1 2.8
2017-Nov-15 15:00N 29°42' W 094°60'0 0.2
2017-Nov-15 14:30N 29°42' W 094°60'0 0.3
2017-Nov-15 14:00N 29°42' W 094°60'0 0.1
2017-Nov-15 13:30N 29°42' W 094°60'0 0.2
2017-Nov-15 12:54N 29°42' W 094°60'0 0.2
2017-Nov-15 12:30N 29°42' W 094°60'0 0.2
2017-Nov-15 12:00N 29°42' W 094°60'0 0.2
2017-Nov-15 11:30N 29°42' W 094°60'0 0.1
2017-Nov-15 10:58N 29°42' W 094°60'0 0.0
2017-Nov-15 09:59N 29°42' W 094°60'0 0.0
2017-Nov-15 08:31N 29°42' W 094°60'0 0.0
2017-Nov-15 08:16N 29°42' W 094°60'0 0.0
2017-Nov-15 07:41N 29°42' W 094°60'0 0.1
2017-Nov-15 07:19N 29°42' W 094°60'0 0.4
2017-Nov-15 07:00N 29°42' W 094°60'0 0.3
2017-Nov-15 06:30N 29°42' W 094°60'0 0.2
2017-Nov-15 05:59N 29°42' W 094°60'0 0.3
2017-Nov-15 05:30N 29°42' W 094°60'0 0.2
2017-Nov-15 04:57N 29°42' W 094°60'0 0.0
2017-Nov-15 04:30N 29°42' W 094°60'0 0.0
2017-Nov-15 03:45N 29°42' W 094°60'0 1.2
2017-Nov-15 03:30N 29°42' W 094°59'4 7.3
2017-Nov-15 02:58N 29°38' W 094°58'4 7.9
2017-Nov-15 02:30N 29°35' W 094°56'2 4.6
2017-Nov-15 02:00N 29°33' W 094°54'1 1.0
2017-Nov-15 01:30N 29°33' W 094°55'1 1.5
2017-Nov-15 01:00N 29°34' W 094°55'1 1.8
2017-Nov-15 00:30N 29°35' W 094°56'2 4.3
2017-Nov-15 00:00N 29°36' W 094°57'2 3.4
2017-Nov-14 23:30N 29°37' W 094°59'2 3.0
2017-Nov-14 23:00N 29°37' W 095°01'0 0.0
2017-Nov-14 22:30N 29°37' W 095°01'1 2.9
2017-Nov-14 22:00N 29°37' W 094°59'2 3.4
2017-Nov-14 21:30N 29°37' W 094°57'0 0.0
2017-Nov-14 21:00N 29°37' W 094°57'0 0.0
2017-Nov-14 20:30N 29°37' W 094°57'0 0.0
2017-Nov-14 20:00N 29°37' W 094°57'0 0.0
2017-Nov-14 19:30N 29°37' W 094°57'0 0.0
2017-Nov-14 19:00N 29°37' W 094°57'0 0.0
2017-Nov-14 18:27N 29°37' W 094°57'0 0.0
2017-Nov-14 17:47N 29°37' W 094°57'0 0.0
2017-Nov-14 17:30N 29°37' W 094°57'0 0.0
2017-Nov-14 17:00N 29°37' W 094°57'0 0.0
2017-Nov-14 16:30N 29°37' W 094°57'0 0.0
2017-Nov-14 15:59N 29°37' W 094°57'0 0.0
2017-Nov-14 15:30N 29°37' W 094°57'0 0.0
2017-Nov-14 14:58N 29°37' W 094°57'0 0.0
2017-Nov-14 14:30N 29°37' W 094°57'0 0.0
2017-Nov-14 14:00N 29°37' W 094°57'0 0.0
2017-Nov-14 13:30N 29°37' W 094°57'0 0.8
2017-Nov-14 13:00N 29°38' W 094°57'0 0.9
2017-Nov-14 12:28N 29°37' W 094°57'0 0.1
2017-Nov-14 12:00N 29°37' W 094°57'0 0.0
2017-Nov-14 11:30N 29°37' W 094°57'0 0.0
2017-Nov-14 11:00N 29°37' W 094°57'0 0.0
2017-Nov-14 10:30N 29°37' W 094°57'0 0.0
2017-Nov-14 10:00N 29°37' W 094°57'0 0.0
2017-Nov-14 09:30N 29°37' W 094°57'0 0.0
2017-Nov-14 09:00N 29°37' W 094°57'0 0.0
2017-Nov-14 08:30N 29°37' W 094°57'0 0.0
2017-Nov-14 08:00N 29°37' W 094°57'0 0.0
2017-Nov-14 07:30N 29°37' W 094°57'0 0.0
2017-Nov-14 07:00N 29°37' W 094°57'0 0.0
2017-Nov-14 06:30N 29°37' W 094°57'0 0.0
2017-Nov-14 06:00N 29°37' W 094°57'0 0.0
2017-Nov-14 05:30N 29°37' W 094°57'0 0.0
2017-Nov-14 05:00N 29°37' W 094°57'0 0.0
2017-Nov-14 04:30N 29°37' W 094°57'0 0.0
2017-Nov-14 04:00N 29°37' W 094°57'0 0.0
2017-Nov-14 03:30N 29°37' W 094°57'0 0.0
2017-Nov-14 03:00N 29°37' W 094°57'3 5.7
2017-Nov-14 02:30N 29°37' W 095°01'0 0.0
2017-Nov-14 02:00N 29°37' W 095°01'0 0.0
2017-Nov-14 01:30N 29°37' W 095°01'0 0.0
2017-Nov-14 01:00N 29°37' W 095°01'2 4.0
2017-Nov-14 00:30N 29°37' W 094°58'1 1.9
2017-Nov-14 00:00N 29°37' W 094°57'0 0.1
2017-Nov-13 23:27N 29°37' W 094°57'1 2.4
2017-Nov-13 23:00N 29°37' W 094°59'2 4.1
2017-Nov-13 22:30N 29°37' W 095°01'0 0.0
2017-Nov-13 22:00N 29°37' W 095°01'29 1.3
2017-Nov-13 00:49N 29°33' W 094°28'  

Dump ship's entire track history